.
WxDataArchive / Data Records for 2014-07-18
2014-07-17 July 2014 2014-07-19

Data Records for Friday, 18 July 2014

Time	Temp	Chill	HIndex	Humid	Dewpt	 Wind 	HiWind	WindDir	Rain 	Barom
-----	----	-----	------	-----	-----	------	------	-------	-----	-----
00:00	57.6	57.6	57.6	77	50.4	0	0	---	0.00	30.125 
00:05	57.5	57.5	57.5	77	50.3	0	0	---	0.00	30.125 
00:10	57.3	57.3	57.3	78	50.5	0	0	---	0.00	30.125 
00:15	57.2	57.2	57.2	79	50.7	0	0	---	0.00	30.125 
00:20	57.0	57.0	57.0	80	50.9	0	0	---	0.00	30.125 
00:25	56.9	56.9	56.9	80	50.8	0	0	---	0.00	30.125 
00:30	56.9	56.9	56.9	81	51.1	0	0	---	0.00	30.128 
00:35	56.7	56.7	56.7	81	50.9	0	0	---	0.00	30.128 
00:40	56.6	56.6	56.6	81	50.8	0	0	---	0.00	30.128 
00:45	56.5	56.5	56.5	81	50.7	0	0	---	0.00	30.126 
00:50	56.3	56.3	56.3	82	50.9	0	0	---	0.00	30.126 
00:55	56.2	56.2	56.2	82	50.8	0	0	---	0.00	30.126 
01:00	56.2	56.2	56.2	82	50.8	0	0	---	0.00	30.130 
01:05	55.9	55.9	55.9	82	50.5	0	0	---	0.00	30.130 
01:10	55.9	55.9	55.9	82	50.5	0	0	---	0.00	30.130 
01:15	55.7	55.7	55.7	83	50.6	0	0	---	0.00	30.128 
01:20	55.6	55.6	55.6	83	50.5	0	0	---	0.00	30.128 
01:25	55.6	55.6	55.6	83	50.5	0	0	---	0.00	30.128 
01:30	55.4	55.4	55.4	84	50.6	0	0	---	0.00	30.130 
01:35	55.4	55.4	55.4	84	50.6	0	0	---	0.00	30.130 
01:40	55.3	55.3	55.3	84	50.5	0	0	---	0.00	30.130 
01:45	55.1	55.1	55.1	84	50.4	0	0	---	0.00	30.129 
01:50	55.1	55.1	55.1	85	50.7	0	0	---	0.00	30.129 
01:55	55.0	55.0	55.0	85	50.6	0	0	---	0.00	30.129 
02:00	54.8	54.8	54.8	85	50.4	0	0	---	0.00	30.129 
02:05	54.8	54.8	54.8	86	50.7	0	0	---	0.00	30.129 
02:10	54.7	54.7	54.7	86	50.6	0	0	---	0.00	30.129 
02:15	54.5	54.5	54.5	86	50.4	0	0	---	0.00	30.126 
02:20	54.5	54.5	54.5	87	50.7	0	0	---	0.00	30.126 
02:25	54.4	54.4	54.4	87	50.6	0	0	---	0.00	30.126 
02:30	54.4	54.4	54.4	87	50.6	0	0	---	0.00	30.126 
02:35	54.2	54.2	54.2	88	50.7	0	0	---	0.00	30.126 
02:40	54.2	54.2	54.2	88	50.7	0	0	---	0.00	30.126 
02:45	54.1	54.1	54.1	88	50.6	0	0	---	0.00	30.125 
02:50	54.1	54.1	54.1	88	50.6	0	0	---	0.00	30.125 
02:55	53.9	53.9	53.9	88	50.4	0	0	---	0.00	30.125 
03:00	53.9	53.9	53.9	89	50.7	0	0	---	0.00	30.124 
03:05	53.8	53.8	53.8	89	50.6	0	0	---	0.00	30.124 
03:10	53.8	53.8	53.8	89	50.6	0	0	---	0.00	30.124 
03:15	53.8	53.8	53.8	89	50.6	0	0	---	0.00	30.122 
03:20	53.6	53.6	53.6	89	50.4	0	0	---	0.00	30.122 
03:25	53.6	53.6	53.6	89	50.4	0	0	---	0.00	30.122 
03:30	53.6	53.6	53.6	89	50.4	0	0	---	0.00	30.122 
03:35	53.5	53.5	53.5	90	50.6	0	0	---	0.00	30.122 
03:40	53.5	53.5	53.5	90	50.6	0	0	---	0.00	30.122 
03:45	53.5	53.5	53.5	90	50.6	0	0	---	0.00	30.126 
03:50	53.3	53.3	53.3	90	50.4	0	0	---	0.00	30.126 
03:55	53.3	53.3	53.3	90	50.4	0	0	---	0.00	30.126 
04:00	53.3	53.3	53.3	90	50.4	0	0	---	0.00	30.126 
04:05	53.2	53.2	53.2	90	50.3	0	0	---	0.00	30.126 
04:10	53.2	53.2	53.2	90	50.3	0	0	---	0.00	30.126 
04:15	53.1	53.1	53.1	91	50.5	0	0	---	0.00	30.126 
04:20	52.9	52.9	52.9	91	50.3	0	0	---	0.00	30.126 
04:25	52.9	52.9	52.9	91	50.3	0	0	---	0.00	30.126 
04:30	52.9	52.9	52.9	91	50.3	0	0	---	0.00	30.129 
04:35	52.8	52.8	52.8	91	50.2	0	0	---	0.00	30.129 
04:40	52.8	52.8	52.8	91	50.2	0	0	---	0.00	30.129 
04:45	52.8	52.8	52.8	91	50.2	0	0	---	0.00	30.129 
04:50	52.8	52.8	52.8	91	50.2	0	0	---	0.00	30.129 
04:55	52.8	52.8	52.8	91	50.2	0	0	---	0.00	30.129 
05:00	52.8	52.8	52.8	91	50.2	0	0	---	0.00	30.136 
05:05	52.8	52.8	52.8	92	50.5	0	0	---	0.00	30.136 
05:10	52.8	52.8	52.8	92	50.5	0	0	---	0.00	30.136 
05:15	52.8	52.8	52.8	92	50.5	0	0	---	0.00	30.140 
05:20	52.8	52.8	52.8	92	50.5	0	0	---	0.00	30.140 
05:25	52.6	52.6	52.6	92	50.3	0	0	---	0.00	30.140 
05:30	52.6	52.6	52.6	92	50.3	0	0	---	0.00	30.147 
05:35	52.6	52.6	52.6	92	50.3	0	0	---	0.00	30.147 
05:40	52.5	52.5	52.5	92	50.2	0	0	---	0.00	30.147 
05:45	52.5	52.5	52.5	92	50.2	0	0	---	0.00	30.153 
05:50	52.3	52.3	52.3	92	50.0	0	0	---	0.00	30.153 
05:55	52.3	52.3	52.3	92	50.0	0	0	---	0.00	30.153 
06:00	52.2	52.2	52.2	92	49.9	0	0	---	0.00	30.158 
06:05	52.2	52.2	52.2	92	49.9	0	0	---	0.00	30.158 
06:10	52.2	52.2	52.2	92	49.9	0	0	---	0.00	30.158 
06:15	52.2	52.2	52.2	92	49.9	0	0	---	0.00	30.161 
06:20	52.2	52.2	52.2	92	49.9	0	0	---	0.00	30.161 
06:25	52.0	52.0	52.0	92	49.7	0	0	---	0.00	30.161 
06:30	52.0	52.0	52.0	92	49.7	0	0	---	0.00	30.166 
06:35	52.0	52.0	52.0	92	49.7	0	0	---	0.00	30.166 
06:40	52.0	52.0	52.0	92	49.7	0	0	---	0.00	30.166 
06:45	52.2	52.2	52.2	93	50.2	0	0	---	0.00	30.172 
06:50	52.2	52.2	52.2	93	50.2	0	0	---	0.00	30.172 
06:55	52.3	52.3	52.3	93	50.3	0	0	---	0.00	30.172 
07:00	52.3	52.3	52.3	93	50.3	0	0	---	0.00	30.172 
07:05	52.5	52.5	52.5	93	50.5	0	0	---	0.00	30.172 
07:10	52.6	52.6	52.6	93	50.6	0	0	---	0.00	30.172 
07:15	52.8	52.8	52.8	93	50.8	0	0	---	0.00	30.174 
07:20	52.8	52.8	52.8	93	50.8	0	0	---	0.00	30.174 
07:25	53.1	53.1	53.1	93	51.1	0	0	---	0.00	30.174 
07:30	53.2	53.2	53.2	93	51.2	0	0	---	0.00	30.175 
07:35	53.6	53.6	53.6	93	51.6	0	0	---	0.00	30.175 
07:40	54.1	54.1	54.1	93	52.1	0	0	---	0.00	30.175 
07:45	54.7	54.7	54.7	93	52.7	0	0	---	0.00	30.178 
07:50	55.1	55.1	55.1	92	52.8	0	0	---	0.00	30.178 
07:55	55.6	55.6	55.6	92	53.3	0	0	---	0.00	30.178 
08:00	56.0	56.0	56.0	89	52.8	0	1	0	0.00	30.181 
08:05	56.6	56.6	56.6	87	52.8	0	0	---	0.00	30.181 
08:10	57.2	57.2	57.2	86	53.0	0	1	0	0.00	30.181 
08:15	58.1	58.1	58.1	84	53.3	0	0	---	0.00	30.187 
08:20	58.9	58.9	58.9	83	53.7	0	0	---	0.00	30.187 
08:25	59.6	59.6	59.6	80	53.4	0	0	---	0.00	30.187 
08:30	60.2	60.2	60.2	79	53.7	0	0	---	0.00	30.190 
08:35	60.9	60.9	60.9	78	54.0	0	0	---	0.00	30.190 
08:40	61.3	61.3	61.3	76	53.7	0	0	---	0.00	30.190 
08:45	61.6	61.6	61.6	76	54.0	0	1	0	0.00	30.190 
08:50	62.1	62.1	62.1	74	53.7	0	2	0	0.00	30.190 
08:55	63.1	63.1	63.1	73	54.3	0	1	0	0.00	30.190 
09:00	63.9	63.9	63.9	71	54.3	0	0	---	0.00	30.187 
09:05	64.5	64.5	64.5	70	54.5	0	1	0	0.00	30.187 
09:10	65.2	65.2	65.2	69	54.8	0	1	0	0.00	30.187 
09:15	66.0	66.0	66.0	66	54.3	0	1	0	0.00	30.191 
09:20	66.8	66.8	66.8	65	54.6	0	1	0	0.00	30.191 
09:25	67.4	67.4	67.4	65	55.2	0	1	0	0.00	30.191 
09:30	67.6	67.6	67.6	63	54.5	0	1	0	0.00	30.187 
09:35	67.9	67.9	67.9	62	54.4	0	2	0	0.00	30.187 
09:40	68.1	68.1	68.1	63	55.0	0	2	0	0.00	30.187 
09:45	68.4	68.4	68.4	62	54.9	0	2	0	0.00	30.185 
09:50	68.8	68.8	68.8	62	55.2	0	2	0	0.00	30.185 
09:55	69.1	69.1	69.1	62	55.5	1	3	0	0.00	30.185 
10:00	69.4	69.4	69.4	59	54.4	0	2	0	0.00	30.181 
10:05	69.8	69.8	69.8	60	55.3	1	3	112	0.00	30.181 
10:10	70.3	70.3	70.3	58	54.8	0	2	112	0.00	30.181 
10:15	71.1	71.1	71.1	55	54.1	0	2	112	0.00	30.181 
10:20	71.5	71.5	71.5	53	53.5	1	4	112	0.00	30.181 
10:25	72.1	72.1	72.1	53	54.0	0	2	112	0.00	30.181 
10:30	72.7	72.7	72.7	54	55.1	1	3	112	0.00	30.176 
10:35	73.0	73.0	73.0	53	54.8	0	2	112	0.00	30.176 
10:40	73.7	73.7	73.7	52	55.0	0	3	112	0.00	30.176 
10:45	74.0	74.0	74.0	51	54.7	1	4	112	0.00	30.175 
10:50	74.6	74.6	74.6	48	53.6	0	2	112	0.00	30.175 
10:55	75.1	75.1	77.7	47	53.5	1	3	112	0.00	30.175 
11:00	75.1	75.1	77.7	47	53.5	1	3	112	0.00	30.175 
11:05	75.1	75.1	77.7	50	55.2	1	3	90	0.00	30.175 
11:10	75.1	75.1	77.7	49	54.6	1	4	90	0.00	30.175 
11:15	75.1	75.1	77.7	49	54.6	0	2	90	0.00	30.175 
11:20	74.6	74.6	74.6	50	54.7	1	4	90	0.00	30.175 
11:25	74.9	74.9	74.9	49	54.4	0	2	90	0.00	30.175 
11:30	75.4	75.4	77.8	49	54.9	1	3	112	0.00	30.171 
11:35	75.8	75.8	77.9	46	53.5	1	5	90	0.00	30.171 
11:40	75.8	75.8	77.9	47	54.1	1	3	90	0.00	30.171 
11:45	76.1	76.1	78.0	45	53.2	1	4	90	0.00	30.165 
11:50	76.3	76.3	78.1	45	53.4	1	4	112	0.00	30.165 
11:55	76.0	76.0	78.0	47	54.3	0	3	180	0.00	30.165 
12:00	75.3	75.3	77.7	45	52.5	2	4	90	0.00	30.165 
12:05	74.7	74.7	74.7	47	53.1	1	4	90	0.00	30.165 
12:10	74.7	74.7	74.7	47	53.1	0	2	90	0.00	30.165 
12:15	74.9	74.9	74.9	47	53.3	0	2	90	0.00	30.169 
12:20	75.6	75.6	77.8	44	52.1	1	3	90	0.00	30.169 
12:25	76.7	76.7	78.2	43	52.5	1	4	90	0.00	30.169 
12:30	77.2	77.2	78.5	43	52.9	0	2	90	0.00	30.168 
12:35	77.7	77.7	78.7	43	53.4	1	2	90	0.00	30.168 
12:40	77.9	77.9	78.8	42	52.9	1	6	90	0.00	30.168 
12:45	77.7	77.7	78.7	43	53.4	1	6	90	0.00	30.168 
12:50	77.4	77.4	78.5	41	51.8	2	5	90	0.00	30.168 
12:55	77.4	77.4	78.6	43	53.1	1	4	112	0.00	30.168 
13:00	77.7	77.7	78.6	40	51.4	1	3	112	0.00	30.167 
13:05	77.9	77.9	78.6	38	50.2	1	4	112	0.00	30.167 
13:10	77.7	77.7	78.6	40	51.4	0	2	112	0.00	30.167 
13:15	77.2	77.2	78.4	42	52.3	0	3	135	0.00	30.167 
13:20	77.4	77.4	78.6	43	53.1	2	5	90	0.00	30.167 
13:25	77.9	77.9	78.8	42	52.9	1	4	90	0.00	30.167 
13:30	78.1	78.1	78.7	39	51.1	1	3	90	0.00	30.166 
13:35	78.1	78.1	78.7	39	51.1	1	2	90	0.00	30.166 
13:40	77.9	77.9	78.7	40	51.6	1	2	90	0.00	30.166 
13:45	77.4	77.4	78.4	40	51.2	2	5	90	0.00	30.166 
13:50	76.8	76.8	78.2	41	51.3	0	5	90	0.00	30.166 
13:55	76.8	76.8	78.1	40	50.6	0	3	90	0.00	30.166 
14:00	77.2	77.2	78.3	39	50.3	2	4	90	0.00	30.162 
14:05	77.6	77.6	78.5	39	50.7	0	3	90	0.00	30.162 
14:10	78.1	78.1	78.7	39	51.1	1	3	90	0.00	30.162 
14:15	78.1	78.1	78.8	40	51.8	0	3	90	0.00	30.154 
14:20	77.4	77.4	78.5	41	51.8	2	5	68	0.00	30.154 
14:25	76.8	76.8	78.3	43	52.6	1	4	68	0.00	30.154 
14:30	76.8	76.8	78.2	42	51.9	2	6	68	0.00	30.153 
14:35	76.8	76.8	78.3	44	53.2	2	6	90	0.00	30.153 
14:40	77.2	77.2	78.5	43	52.9	1	4	112	0.00	30.153 
14:45	77.6	77.6	78.7	44	53.9	0	3	90	0.00	30.147 
14:50	77.7	77.7	78.7	42	52.8	1	4	90	0.00	30.147 
14:55	77.4	77.4	78.6	43	53.1	2	5	90	0.00	30.147 
15:00	77.0	77.0	78.4	44	53.4	1	3	135	0.00	30.142 
15:05	76.8	76.8	78.3	45	53.8	0	1	135	0.00	30.142 
15:10	76.7	76.7	78.2	43	52.5	0	2	135	0.00	30.142 
15:15	76.7	76.7	78.3	44	53.1	1	3	135	0.00	30.138 
15:20	76.7	76.7	78.3	45	53.7	0	1	135	0.00	30.138 
15:25	76.8	76.8	78.3	45	53.8	0	2	135	0.00	30.138 
15:30	76.8	76.8	78.3	44	53.2	1	3	135	0.00	30.135 
15:35	76.8	76.8	78.3	45	53.8	0	4	112	0.00	30.135 
15:40	77.2	77.2	78.5	45	54.2	0	3	112	0.00	30.135 
15:45	77.2	77.2	78.5	43	52.9	1	5	112	0.00	30.135 
15:50	77.2	77.2	78.5	43	52.9	0	2	90	0.00	30.135 
15:55	77.2	77.2	78.5	43	52.9	0	1	90	0.00	30.135 
16:00	77.2	77.2	78.6	46	54.8	1	3	90	0.00	30.132 
16:05	77.0	77.0	78.5	46	54.6	0	2	90	0.00	30.132 
16:10	77.0	77.0	78.4	44	53.4	0	1	90	0.00	30.132 
16:15	76.8	76.8	78.3	44	53.2	0	2	90	0.00	30.132 
16:20	76.7	76.7	78.3	44	53.1	0	2	90	0.00	30.132 
16:25	76.3	76.3	78.1	46	54.0	1	3	90	0.00	30.132 
16:30	76.5	76.5	78.3	47	54.7	1	3	90	0.00	30.129 
16:35	76.7	76.7	78.3	46	54.3	0	2	90	0.00	30.129 
16:40	76.8	76.8	78.3	45	53.8	1	3	90	0.00	30.129 
16:45	77.0	77.0	78.3	42	52.1	1	3	90	0.00	30.128 
16:50	76.8	76.8	78.3	43	52.6	1	4	90	0.00	30.128 
16:55	76.5	76.5	78.1	42	51.7	1	3	90	0.00	30.128 
17:00	76.5	76.5	78.1	43	52.3	0	3	90	0.00	30.128 
17:05	76.7	76.7	78.1	41	51.2	1	4	90	0.00	30.128 
17:10	76.8	76.8	78.2	41	51.3	1	3	90	0.00	30.128 
17:15	77.0	77.0	78.2	40	50.8	0	2	90	0.00	30.125 
17:20	77.0	77.0	78.3	41	51.5	0	3	90	0.00	30.125 
17:25	76.8	76.8	78.1	40	50.6	0	2	90	0.00	30.125 
17:30	76.5	76.5	78.1	41	51.0	1	5	90	0.00	30.123 
17:35	76.3	76.3	78.0	43	52.1	0	2	90	0.00	30.123 
17:40	76.0	76.0	77.9	43	51.9	1	3	90	0.00	30.123 
17:45	76.0	76.0	77.9	43	51.9	0	1	90	0.00	30.122 
17:50	75.8	75.8	77.8	42	51.1	0	2	90	0.00	30.122 
17:55	75.6	75.6	77.7	42	50.9	1	3	90	0.00	30.122 
18:00	75.4	75.4	77.7	44	52.0	0	3	90	0.00	30.117 
18:05	75.4	75.4	77.7	45	52.6	0	1	90	0.00	30.117 
18:10	75.3	75.3	77.7	45	52.5	0	2	90	0.00	30.117 
18:15	75.3	75.3	77.7	45	52.5	0	3	90	0.00	30.116 
18:20	75.1	75.1	77.6	45	52.3	0	1	90	0.00	30.116 
18:25	75.1	75.1	77.6	45	52.3	0	2	90	0.00	30.116 
18:30	74.9	74.9	74.9	45	52.1	0	2	90	0.00	30.114 
18:35	74.9	74.9	74.9	46	52.7	0	1	90	0.00	30.114 
18:40	74.7	74.7	74.7	46	52.5	0	1	90	0.00	30.114 
18:45	74.7	74.7	74.7	46	52.5	0	1	90	0.00	30.116 
18:50	74.6	74.6	74.6	46	52.4	0	1	90	0.00	30.116 
18:55	74.6	74.6	74.6	47	53.0	0	1	90	0.00	30.116 
19:00	74.4	74.4	74.4	48	53.4	0	1	90	0.00	30.113 
19:05	74.4	74.4	74.4	48	53.4	0	1	90	0.00	30.113 
19:10	74.2	74.2	74.2	48	53.2	0	1	90	0.00	30.113 
19:15	74.2	74.2	74.2	50	54.3	0	0	---	0.00	30.107 
19:20	74.0	74.0	74.0	50	54.2	0	1	90	0.00	30.107 
19:25	73.9	73.9	73.9	51	54.6	0	0	---	0.00	30.107 
19:30	73.7	73.7	73.7	51	54.4	0	1	90	0.00	30.105 
19:35	73.7	73.7	73.7	51	54.4	0	1	90	0.00	30.105 
19:40	73.5	73.5	73.5	52	54.8	0	1	90	0.00	30.105 
19:45	73.3	73.3	73.3	52	54.6	0	0	---	0.00	30.104 
19:50	73.3	73.3	73.3	52	54.6	0	0	---	0.00	30.104 
19:55	73.2	73.2	73.2	52	54.5	0	0	---	0.00	30.104 
20:00	73.2	73.2	73.2	51	54.0	0	0	---	0.00	30.106 
20:05	73.2	73.2	73.2	51	54.0	0	0	---	0.00	30.106 
20:10	73.0	73.0	73.0	52	54.3	0	0	---	0.00	30.106 
20:15	73.0	73.0	73.0	53	54.8	0	0	---	0.00	30.100 
20:20	72.8	72.8	72.8	54	55.2	0	0	---	0.00	30.100 
20:25	72.8	72.8	72.8	54	55.2	0	0	---	0.00	30.100 
20:30	72.7	72.7	72.7	54	55.1	0	0	---	0.00	30.100 
20:35	72.3	72.3	72.3	55	55.2	0	0	---	0.00	30.100 
20:40	72.1	72.1	72.1	56	55.5	0	0	---	0.00	30.100 
20:45	72.0	72.0	72.0	57	55.9	0	0	---	0.00	30.099 
20:50	71.8	71.8	71.8	58	56.2	0	0	---	0.00	30.099 
20:55	71.6	71.6	71.6	58	56.0	0	0	---	0.00	30.099 
21:00	71.5	71.5	71.5	58	55.9	0	0	---	0.00	30.098 
21:05	71.3	71.3	71.3	58	55.7	0	0	---	0.00	30.098 
21:10	71.1	71.1	71.1	59	56.0	0	0	---	0.00	30.098 
21:15	70.8	70.8	70.8	59	55.7	0	0	---	0.00	30.093 
21:20	70.6	70.6	70.6	59	55.6	0	0	---	0.00	30.093 
21:25	70.4	70.4	70.4	60	55.8	0	0	---	0.00	30.093 
21:30	70.3	70.3	70.3	61	56.2	0	0	---	0.00	30.093 
21:35	69.9	69.9	69.9	62	56.3	0	0	---	0.00	30.093 
21:40	69.8	69.8	69.8	62	56.2	0	0	---	0.00	30.093 
21:45	69.6	69.6	69.6	63	56.4	0	0	---	0.00	30.089 
21:50	69.4	69.4	69.4	63	56.2	0	0	---	0.00	30.089 
21:55	69.1	69.1	69.1	63	56.0	0	0	---	0.00	30.089 
22:00	68.9	68.9	68.9	63	55.8	0	0	---	0.00	30.095 
22:05	68.6	68.6	68.6	64	55.9	0	0	---	0.00	30.095 
22:10	68.4	68.4	68.4	65	56.2	0	0	---	0.00	30.095 
22:15	68.1	68.1	68.1	66	56.3	0	0	---	0.00	30.094 
22:20	67.9	67.9	67.9	66	56.1	0	0	---	0.00	30.094 
22:25	67.6	67.6	67.6	67	56.2	0	0	---	0.00	30.094 
22:30	67.4	67.4	67.4	68	56.5	0	0	---	0.00	30.094 
22:35	67.3	67.3	67.3	69	56.8	0	0	---	0.00	30.094 
22:40	67.1	67.1	67.1	69	56.6	0	0	---	0.00	30.094 
22:45	66.8	66.8	66.8	70	56.7	0	0	---	0.00	30.096 
22:50	66.8	66.8	66.8	70	56.7	0	1	90	0.00	30.096 
22:55	66.8	66.8	66.8	70	56.7	0	0	---	0.00	30.096 
23:00	66.6	66.6	66.6	71	56.9	0	0	---	0.00	30.096 
23:05	66.6	66.6	66.6	70	56.5	0	0	---	0.00	30.096 
23:10	66.4	66.4	66.4	70	56.3	0	0	---	0.00	30.096 
23:15	66.3	66.3	66.3	71	56.6	0	0	---	0.00	30.096 
23:20	66.0	66.0	66.0	71	56.3	0	0	---	0.00	30.096 
23:25	65.8	65.8	65.8	71	56.1	0	0	---	0.00	30.096 
23:30	65.5	65.5	65.5	72	56.2	0	0	---	0.00	30.097 
23:35	65.3	65.3	65.3	72	56.0	0	0	---	0.00	30.097 
23:40	65.0	65.0	65.0	73	56.1	0	0	---	0.00	30.097 
23:45	64.7	64.7	64.7	74	56.2	0	0	---	0.00	30.094 
23:50	64.3	64.3	64.3	74	55.8	0	0	---	0.00	30.094 
23:55	64.0	64.0	64.0	76	56.3	0	0	---	0.00	30.094 

CoCoRaHS
IN-AL-39
A2 Web Hosting
Creative Commons License
GoDaddy
search engine by freefind advanced

loaded 2018-11-22 05:24:36 • last modified 2010-11-18 10:43:29
Privacy PolicyDisclaimer
• wx.awcolley.com is powered by PmWiki v.2002016 •
• all content (unless otherwise noted) © 2018 A W Colley